sensor_id;sensor_type;location;lat;lon;timestamp;noise_LAeq;noise_LA_min;noise_LA_max;noise_LA01;noise_LA95
66399;Laerm;54877;51.504;3.894;2022-09-01T00:00:38;35.61;28.16;53.47;;
66399;Laerm;54877;51.504;3.894;2022-09-01T00:03:03;32.46;28.29;47.43;;
66399;Laerm;54877;51.504;3.894;2022-09-01T00:05:28;33.47;27.94;56.41;;
66399;Laerm;54877;51.504;3.894;2022-09-01T00:07:56;29.59;27.64;39.11;;
66399;Laerm;54877;51.504;3.894;2022-09-01T00:10:21;29.65;27.76;38.06;;
66399;Laerm;54877;51.504;3.894;2022-09-01T00:12:47;62.27;28.11;83.91;;
66399;Laerm;54877;51.504;3.894;2022-09-01T00:15:12;30.83;27.65;41.95;;
66399;Laerm;54877;51.504;3.894;2022-09-01T00:17:37;30.14;27.75;41.18;;
66399;Laerm;54877;51.504;3.894;2022-09-01T00:20:03;31.16;27.91;49.76;;
66399;Laerm;54877;51.504;3.894;2022-09-01T00:22:28;30.94;27.63;49.54;;
66399;Laerm;54877;51.504;3.894;2022-09-01T00:24:53;30.07;27.63;37.38;;
66399;Laerm;54877;51.504;3.894;2022-09-01T00:27:19;36.25;27.72;57.78;;
66399;Laerm;54877;51.504;3.894;2022-09-01T00:29:44;31.65;28.04;47.03;;
66399;Laerm;54877;51.504;3.894;2022-09-01T00:32:10;30.03;27.92;38.19;;
66399;Laerm;54877;51.504;3.894;2022-09-01T00:34:35;33.05;27.83;47.67;;
66399;Laerm;54877;51.504;3.894;2022-09-01T00:37:01;33.73;28.24;56.81;;
66399;Laerm;54877;51.504;3.894;2022-09-01T00:39:26;31.49;28.15;51.73;;
66399;Laerm;54877;51.504;3.894;2022-09-01T00:41:51;31.37;27.91;54.67;;
66399;Laerm;54877;51.504;3.894;2022-09-01T00:44:18;29.56;27.26;37.07;;
66399;Laerm;54877;51.504;3.894;2022-09-01T00:46:47;30.44;27.73;40.76;;
66399;Laerm;54877;51.504;3.894;2022-09-01T00:51:39;32.44;28.45;54.05;;
66399;Laerm;54877;51.504;3.894;2022-09-01T00:54:06;31.33;27.71;56.16;;
66399;Laerm;54877;51.504;3.894;2022-09-01T00:56:33;29.82;27.73;40.46;;
66399;Laerm;54877;51.504;3.894;2022-09-01T00:58:59;33.23;28.27;51.65;;
66399;Laerm;54877;51.504;3.894;2022-09-01T01:01:24;29.60;27.52;35.66;;
66399;Laerm;54877;51.504;3.894;2022-09-01T01:03:49;31.90;27.67;44.81;;
66399;Laerm;54877;51.504;3.894;2022-09-01T01:06:14;29.48;27.38;44.10;;
66399;Laerm;54877;51.504;3.894;2022-09-01T01:08:41;31.38;27.70;54.29;;
66399;Laerm;54877;51.504;3.894;2022-09-01T01:11:14;32.04;27.95;53.42;;
66399;Laerm;54877;51.504;3.894;2022-09-01T01:13:50;31.79;27.92;48.55;;
66399;Laerm;54877;51.504;3.894;2022-09-01T01:16:16;32.37;28.01;47.84;;
66399;Laerm;54877;51.504;3.894;2022-09-01T01:18:41;30.21;27.70;43.37;;
66399;Laerm;54877;51.504;3.894;2022-09-01T01:21:07;30.23;27.46;41.03;;
66399;Laerm;54877;51.504;3.894;2022-09-01T01:24:01;31.83;27.86;41.80;;
66399;Laerm;54877;51.504;3.894;2022-09-01T01:26:28;30.08;27.64;46.13;;
66399;Laerm;54877;51.504;3.894;2022-09-01T01:28:53;31.75;27.62;51.08;;
66399;Laerm;54877;51.504;3.894;2022-09-01T01:31:19;29.42;27.58;32.74;;
66399;Laerm;54877;51.504;3.894;2022-09-01T01:33:51;29.99;27.56;43.13;;
66399;Laerm;54877;51.504;3.894;2022-09-01T01:36:24;30.73;27.71;45.09;;
66399;Laerm;54877;51.504;3.894;2022-09-01T01:38:56;30.58;27.79;42.90;;
66399;Laerm;54877;51.504;3.894;2022-09-01T01:41:28;29.82;27.83;37.90;;
66399;Laerm;54877;51.504;3.894;2022-09-01T01:43:54;30.28;27.75;35.97;;
66399;Laerm;54877;51.504;3.894;2022-09-01T01:46:20;31.01;27.68;42.07;;
66399;Laerm;54877;51.504;3.894;2022-09-01T01:48:46;30.10;27.73;38.56;;
66399;Laerm;54877;51.504;3.894;2022-09-01T01:51:11;29.40;27.55;32.73;;
66399;Laerm;54877;51.504;3.894;2022-09-01T01:53:38;31.05;28.15;41.36;;
66399;Laerm;54877;51.504;3.894;2022-09-01T01:56:03;32.90;28.19;45.66;;
66399;Laerm;54877;51.504;3.894;2022-09-01T01:58:30;29.72;27.67;38.98;;
66399;Laerm;54877;51.504;3.894;2022-09-01T02:00:56;32.07;27.71;46.87;;
66399;Laerm;54877;51.504;3.894;2022-09-01T02:03:23;29.18;27.58;32.61;;
66399;Laerm;54877;51.504;3.894;2022-09-01T02:05:50;30.25;27.98;37.81;;
66399;Laerm;54877;51.504;3.894;2022-09-01T02:08:16;29.41;27.77;39.34;;
66399;Laerm;54877;51.504;3.894;2022-09-01T02:10:46;30.32;27.83;40.78;;
66399;Laerm;54877;51.504;3.894;2022-09-01T02:13:12;29.62;27.82;37.86;;
66399;Laerm;54877;51.504;3.894;2022-09-01T02:15:41;29.46;27.73;35.19;;
66399;Laerm;54877;51.504;3.894;2022-09-01T02:18:27;31.25;27.95;52.09;;
66399;Laerm;54877;51.504;3.894;2022-09-01T02:20:55;30.66;27.74;49.71;;
66399;Laerm;54877;51.504;3.894;2022-09-01T02:23:22;30.26;27.61;36.14;;
66399;Laerm;54877;51.504;3.894;2022-09-01T02:25:49;30.11;27.59;42.07;;
66399;Laerm;54877;51.504;3.894;2022-09-01T02:28:15;30.86;28.53;43.04;;
66399;Laerm;54877;51.504;3.894;2022-09-01T02:30:41;29.69;27.97;32.40;;
66399;Laerm;54877;51.504;3.894;2022-09-01T02:33:07;30.30;28.02;40.23;;
66399;Laerm;54877;51.504;3.894;2022-09-01T02:35:33;29.75;28.01;38.18;;
66399;Laerm;54877;51.504;3.894;2022-09-01T02:38:01;30.36;28.29;41.78;;
66399;Laerm;54877;51.504;3.894;2022-09-01T02:40:27;29.67;27.81;31.69;;
66399;Laerm;54877;51.504;3.894;2022-09-01T02:42:55;30.37;28.29;39.71;;
66399;Laerm;54877;51.504;3.894;2022-09-01T02:45:21;30.48;28.19;35.31;;
66399;Laerm;54877;51.504;3.894;2022-09-01T02:47:48;29.95;28.18;31.93;;
66399;Laerm;54877;51.504;3.894;2022-09-01T02:50:15;29.82;27.99;32.03;;
66399;Laerm;54877;51.504;3.894;2022-09-01T02:52:43;29.63;28.15;31.69;;
66399;Laerm;54877;51.504;3.894;2022-09-01T02:55:09;29.76;28.05;45.23;;
66399;Laerm;54877;51.504;3.894;2022-09-01T02:57:34;30.08;27.87;37.88;;
66399;Laerm;54877;51.504;3.894;2022-09-01T02:59:59;32.23;29.13;45.91;;
66399;Laerm;54877;51.504;3.894;2022-09-01T03:02:25;30.80;28.71;40.14;;
66399;Laerm;54877;51.504;3.894;2022-09-01T03:04:52;30.23;28.22;33.73;;
66399;Laerm;54877;51.504;3.894;2022-09-01T03:07:19;30.23;27.89;35.09;;
66399;Laerm;54877;51.504;3.894;2022-09-01T03:09:45;30.51;28.55;34.87;;
66399;Laerm;54877;51.504;3.894;2022-09-01T03:12:10;30.87;29.05;38.21;;
66399;Laerm;54877;51.504;3.894;2022-09-01T03:14:36;31.04;28.96;42.60;;
66399;Laerm;54877;51.504;3.894;2022-09-01T03:17:01;30.84;28.81;39.92;;
66399;Laerm;54877;51.504;3.894;2022-09-01T03:19:26;31.26;28.97;38.26;;
66399;Laerm;54877;51.504;3.894;2022-09-01T03:21:51;31.42;28.65;37.89;;
66399;Laerm;54877;51.504;3.894;2022-09-01T03:24:17;35.78;28.73;58.24;;
66399;Laerm;54877;51.504;3.894;2022-09-01T03:26:42;31.03;28.90;33.81;;
66399;Laerm;54877;51.504;3.894;2022-09-01T03:29:08;31.41;29.45;34.07;;
66399;Laerm;54877;51.504;3.894;2022-09-01T03:31:34;31.03;29.10;34.83;;
66399;Laerm;54877;51.504;3.894;2022-09-01T03:34:00;31.39;29.42;33.96;;
66399;Laerm;54877;51.504;3.894;2022-09-01T03:36:27;31.83;29.84;35.53;;
66399;Laerm;54877;51.504;3.894;2022-09-01T03:38:53;33.00;29.92;43.62;;
66399;Laerm;54877;51.504;3.894;2022-09-01T03:41:20;31.82;29.89;35.44;;
66399;Laerm;54877;51.504;3.894;2022-09-01T03:43:46;31.87;29.64;34.30;;
66399;Laerm;54877;51.504;3.894;2022-09-01T03:46:11;32.08;29.97;40.52;;
66399;Laerm;54877;51.504;3.894;2022-09-01T03:48:43;32.61;30.14;47.00;;
66399;Laerm;54877;51.504;3.894;2022-09-01T03:51:09;32.62;30.42;35.68;;
66399;Laerm;54877;51.504;3.894;2022-09-01T03:53:36;32.46;30.40;35.42;;
66399;Laerm;54877;51.504;3.894;2022-09-01T03:56:02;32.30;30.27;36.14;;
66399;Laerm;54877;51.504;3.894;2022-09-01T03:58:28;33.04;30.61;37.40;;
66399;Laerm;54877;51.504;3.894;2022-09-01T04:00:54;33.19;30.86;40.24;;
66399;Laerm;54877;51.504;3.894;2022-09-01T04:03:20;33.04;30.51;38.55;;
66399;Laerm;54877;51.504;3.894;2022-09-01T04:05:47;33.49;31.04;36.76;;
66399;Laerm;54877;51.504;3.894;2022-09-01T04:08:12;33.64;31.37;37.20;;
66399;Laerm;54877;51.504;3.894;2022-09-01T04:10:42;33.75;30.87;42.10;;
66399;Laerm;54877;51.504;3.894;2022-09-01T04:13:13;33.66;30.98;42.91;;
66399;Laerm;54877;51.504;3.894;2022-09-01T04:15:38;36.10;31.16;54.60;;
66399;Laerm;54877;51.504;3.894;2022-09-01T04:18:03;37.51;32.18;45.52;;
66399;Laerm;54877;51.504;3.894;2022-09-01T04:20:34;34.49;31.89;44.88;;
66399;Laerm;54877;51.504;3.894;2022-09-01T04:23:11;36.08;32.04;53.27;;
66399;Laerm;54877;51.504;3.894;2022-09-01T04:25:37;35.22;32.07;45.78;;
66399;Laerm;54877;51.504;3.894;2022-09-01T04:28:03;34.91;32.58;42.62;;
66399;Laerm;54877;51.504;3.894;2022-09-01T04:30:37;58.97;31.78;79.94;;
66399;Laerm;54877;51.504;3.894;2022-09-01T04:33:04;56.56;32.04;74.06;;
66399;Laerm;54877;51.504;3.894;2022-09-01T04:35:29;36.16;32.86;44.87;;
66399;Laerm;54877;51.504;3.894;2022-09-01T04:37:56;37.57;32.58;62.86;;
66399;Laerm;54877;51.504;3.894;2022-09-01T04:40:22;35.78;32.74;43.70;;
66399;Laerm;54877;51.504;3.894;2022-09-01T04:42:47;35.72;32.51;45.05;;
66399;Laerm;54877;51.504;3.894;2022-09-01T04:45:12;35.92;32.61;47.69;;
66399;Laerm;54877;51.504;3.894;2022-09-01T04:47:39;36.28;33.38;42.88;;
66399;Laerm;54877;51.504;3.894;2022-09-01T04:50:06;37.45;33.96;46.67;;
66399;Laerm;54877;51.504;3.894;2022-09-01T04:52:37;37.09;33.75;47.00;;
66399;Laerm;54877;51.504;3.894;2022-09-01T04:55:02;53.54;33.03;71.40;;
66399;Laerm;54877;51.504;3.894;2022-09-01T04:57:28;39.17;33.64;58.72;;
66399;Laerm;54877;51.504;3.894;2022-09-01T04:59:55;40.89;33.34;60.63;;
66399;Laerm;54877;51.504;3.894;2022-09-01T05:02:23;54.40;33.94;72.24;;
66399;Laerm;54877;51.504;3.894;2022-09-01T05:04:50;39.93;34.24;60.98;;
66399;Laerm;54877;51.504;3.894;2022-09-01T05:07:20;37.71;33.95;46.45;;
66399;Laerm;54877;51.504;3.894;2022-09-01T05:09:45;55.21;34.75;75.75;;
66399;Laerm;54877;51.504;3.894;2022-09-01T05:12:10;44.89;36.07;64.61;;
66399;Laerm;54877;51.504;3.894;2022-09-01T05:14:39;43.10;35.46;64.21;;
66399;Laerm;54877;51.504;3.894;2022-09-01T05:17:06;44.92;34.23;66.07;;
66399;Laerm;54877;51.504;3.894;2022-09-01T05:19:34;45.01;35.10;60.24;;
66399;Laerm;54877;51.504;3.894;2022-09-01T05:22:00;43.63;34.87;66.55;;
66399;Laerm;54877;51.504;3.894;2022-09-01T05:24:27;44.73;35.04;65.81;;
66399;Laerm;54877;51.504;3.894;2022-09-01T05:26:54;54.02;34.78;73.04;;
66399;Laerm;54877;51.504;3.894;2022-09-01T05:29:20;42.24;35.07;56.64;;
66399;Laerm;54877;51.504;3.894;2022-09-01T05:31:46;43.76;34.35;62.33;;
66399;Laerm;54877;51.504;3.894;2022-09-01T05:34:12;53.87;35.38;74.86;;
66399;Laerm;54877;51.504;3.894;2022-09-01T05:36:40;41.11;34.95;56.37;;
66399;Laerm;54877;51.504;3.894;2022-09-01T05:39:06;49.54;34.93;67.61;;
66399;Laerm;54877;51.504;3.894;2022-09-01T05:41:31;42.42;34.73;64.92;;
66399;Laerm;54877;51.504;3.894;2022-09-01T05:44:00;43.28;34.78;62.58;;
66399;Laerm;54877;51.504;3.894;2022-09-01T05:46:26;41.44;34.38;59.48;;
66399;Laerm;54877;51.504;3.894;2022-09-01T05:48:52;52.22;34.84;71.62;;
66399;Laerm;54877;51.504;3.894;2022-09-01T05:51:21;52.38;35.18;71.92;;
66399;Laerm;54877;51.504;3.894;2022-09-01T05:53:50;45.95;35.05;66.16;;
66399;Laerm;54877;51.504;3.894;2022-09-01T05:56:17;52.89;36.77;71.70;;
66399;Laerm;54877;51.504;3.894;2022-09-01T05:58:43;49.85;36.71;65.56;;
66399;Laerm;54877;51.504;3.894;2022-09-01T06:01:14;42.39;36.01;60.19;;
66399;Laerm;54877;51.504;3.894;2022-09-01T06:03:40;52.82;36.41;73.34;;
66399;Laerm;54877;51.504;3.894;2022-09-01T06:06:08;56.28;36.22;75.62;;
66399;Laerm;54877;51.504;3.894;2022-09-01T06:08:36;41.22;36.12;57.76;;
66399;Laerm;54877;51.504;3.894;2022-09-01T06:11:01;43.10;34.92;69.17;;
66399;Laerm;54877;51.504;3.894;2022-09-01T06:13:28;54.22;35.87;71.23;;
66399;Laerm;54877;51.504;3.894;2022-09-01T06:15:54;46.56;35.23;69.64;;
66399;Laerm;54877;51.504;3.894;2022-09-01T06:18:22;43.46;35.46;58.83;;
66399;Laerm;54877;51.504;3.894;2022-09-01T06:20:48;57.06;37.00;79.38;;
66399;Laerm;54877;51.504;3.894;2022-09-01T06:23:13;41.71;35.47;57.54;;
66399;Laerm;54877;51.504;3.894;2022-09-01T06:25:42;44.46;36.16;59.65;;
66399;Laerm;54877;51.504;3.894;2022-09-01T06:28:10;59.78;36.03;77.52;;
66399;Laerm;54877;51.504;3.894;2022-09-01T06:30:36;52.52;35.74;70.88;;
66399;Laerm;54877;51.504;3.894;2022-09-01T06:33:03;51.53;35.19;71.61;;
66399;Laerm;54877;51.504;3.894;2022-09-01T06:35:29;55.23;34.99;73.32;;
66399;Laerm;54877;51.504;3.894;2022-09-01T06:37:56;48.40;35.54;65.85;;
66399;Laerm;54877;51.504;3.894;2022-09-01T06:40:22;40.12;34.86;63.41;;
66399;Laerm;54877;51.504;3.894;2022-09-01T06:42:50;53.80;35.18;72.34;;
66399;Laerm;54877;51.504;3.894;2022-09-01T06:45:17;47.80;34.36;67.53;;
66399;Laerm;54877;51.504;3.894;2022-09-01T06:47:44;56.42;34.59;74.04;;
66399;Laerm;54877;51.504;3.894;2022-09-01T06:50:11;38.65;34.23;60.08;;
66399;Laerm;54877;51.504;3.894;2022-09-01T06:52:38;42.87;34.74;63.29;;
66399;Laerm;54877;51.504;3.894;2022-09-01T06:55:04;57.25;36.94;74.05;;
66399;Laerm;54877;51.504;3.894;2022-09-01T06:57:30;53.56;34.58;72.32;;
66399;Laerm;54877;51.504;3.894;2022-09-01T06:59:55;49.22;35.48;70.82;;
66399;Laerm;54877;51.504;3.894;2022-09-01T07:02:20;50.78;35.24;68.42;;
66399;Laerm;54877;51.504;3.894;2022-09-01T07:04:46;41.94;35.19;57.16;;
66399;Laerm;54877;51.504;3.894;2022-09-01T07:07:12;51.98;35.15;69.31;;
66399;Laerm;54877;51.504;3.894;2022-09-01T07:09:38;51.31;33.39;69.53;;
66399;Laerm;54877;51.504;3.894;2022-09-01T07:12:06;41.72;34.95;55.69;;
66399;Laerm;54877;51.504;3.894;2022-09-01T07:14:32;52.70;34.89;73.67;;
66399;Laerm;54877;51.504;3.894;2022-09-01T07:17:03;44.56;35.19;69.40;;
66399;Laerm;54877;51.504;3.894;2022-09-01T07:19:28;42.11;33.71;59.50;;
66399;Laerm;54877;51.504;3.894;2022-09-01T07:21:54;38.37;33.65;52.34;;
66399;Laerm;54877;51.504;3.894;2022-09-01T07:24:20;52.08;33.77;71.45;;
66399;Laerm;54877;51.504;3.894;2022-09-01T07:26:45;37.59;32.95;49.74;;
66399;Laerm;54877;51.504;3.894;2022-09-01T07:29:15;46.65;33.50;69.29;;
66399;Laerm;54877;51.504;3.894;2022-09-01T07:31:41;51.10;34.38;70.39;;
66399;Laerm;54877;51.504;3.894;2022-09-01T07:34:08;54.86;34.00;71.34;;
66399;Laerm;54877;51.504;3.894;2022-09-01T07:36:40;41.10;32.34;67.74;;
66399;Laerm;54877;51.504;3.894;2022-09-01T07:39:07;39.66;33.06;56.45;;
66399;Laerm;54877;51.504;3.894;2022-09-01T07:41:33;41.50;32.22;55.88;;
66399;Laerm;54877;51.504;3.894;2022-09-01T07:43:59;51.77;32.45;65.86;;
66399;Laerm;54877;51.504;3.894;2022-09-01T07:46:25;39.91;32.03;54.65;;
66399;Laerm;54877;51.504;3.894;2022-09-01T07:48:54;36.68;32.14;49.29;;
66399;Laerm;54877;51.504;3.894;2022-09-01T07:51:21;43.96;31.84;72.22;;
66399;Laerm;54877;51.504;3.894;2022-09-01T07:53:46;40.69;31.87;56.98;;
66399;Laerm;54877;51.504;3.894;2022-09-01T07:56:12;41.54;32.67;60.29;;
66399;Laerm;54877;51.504;3.894;2022-09-01T07:58:39;46.67;33.46;65.05;;
66399;Laerm;54877;51.504;3.894;2022-09-01T08:01:10;44.31;32.57;63.42;;
66399;Laerm;54877;51.504;3.894;2022-09-01T08:03:35;54.86;32.98;73.88;;
66399;Laerm;54877;51.504;3.894;2022-09-01T08:06:02;45.90;33.63;63.87;;
66399;Laerm;54877;51.504;3.894;2022-09-01T08:08:27;53.91;33.96;72.37;;
66399;Laerm;54877;51.504;3.894;2022-09-01T08:10:53;40.84;32.44;59.67;;
66399;Laerm;54877;51.504;3.894;2022-09-01T08:13:18;47.70;33.85;72.77;;
66399;Laerm;54877;51.504;3.894;2022-09-01T08:15:44;59.44;34.04;79.13;;
66399;Laerm;54877;51.504;3.894;2022-09-01T08:18:10;48.00;33.56;63.56;;
66399;Laerm;54877;51.504;3.894;2022-09-01T08:20:36;48.13;36.48;65.63;;
66399;Laerm;54877;51.504;3.894;2022-09-01T08:23:03;54.23;35.48;67.74;;
66399;Laerm;54877;51.504;3.894;2022-09-01T08:25:29;42.81;33.83;56.78;;
66399;Laerm;54877;51.504;3.894;2022-09-01T08:27:55;46.41;34.59;67.53;;
66399;Laerm;54877;51.504;3.894;2022-09-01T08:30:20;56.50;33.56;75.79;;
66399;Laerm;54877;51.504;3.894;2022-09-01T08:32:46;43.57;34.37;55.64;;
66399;Laerm;54877;51.504;3.894;2022-09-01T08:35:11;45.04;33.23;62.94;;
66399;Laerm;54877;51.504;3.894;2022-09-01T08:37:37;43.45;33.51;61.37;;
66399;Laerm;54877;51.504;3.894;2022-09-01T08:40:04;57.54;36.33;75.71;;
66399;Laerm;54877;51.504;3.894;2022-09-01T08:42:42;54.71;37.30;72.40;;
66399;Laerm;54877;51.504;3.894;2022-09-01T08:45:12;54.60;34.26;76.73;;
66399;Laerm;54877;51.504;3.894;2022-09-01T08:47:40;43.15;33.97;64.04;;
66399;Laerm;54877;51.504;3.894;2022-09-01T08:50:05;49.67;33.22;69.77;;
66399;Laerm;54877;51.504;3.894;2022-09-01T08:52:34;56.33;33.82;76.59;;
66399;Laerm;54877;51.504;3.894;2022-09-01T08:55:20;52.35;34.01;71.68;;
66399;Laerm;54877;51.504;3.894;2022-09-01T08:57:49;52.75;32.67;72.95;;
66399;Laerm;54877;51.504;3.894;2022-09-01T09:00:17;39.42;31.90;55.17;;
66399;Laerm;54877;51.504;3.894;2022-09-01T09:10:59;53.78;35.12;74.56;;
66399;Laerm;54877;51.504;3.894;2022-09-01T09:13:31;49.67;34.74;68.27;;
66399;Laerm;54877;51.504;3.894;2022-09-01T09:16:06;57.21;33.22;74.67;;
66399;Laerm;54877;51.504;3.894;2022-09-01T09:18:44;43.72;33.19;58.88;;
66399;Laerm;54877;51.504;3.894;2022-09-01T09:21:15;49.21;33.85;67.35;;
66399;Laerm;54877;51.504;3.894;2022-09-01T09:23:42;43.65;32.94;61.79;;
66399;Laerm;54877;51.504;3.894;2022-09-01T09:26:09;48.45;32.99;75.78;;
66399;Laerm;54877;51.504;3.894;2022-09-01T09:28:34;52.43;32.72;71.91;;
66399;Laerm;54877;51.504;3.894;2022-09-01T09:33:43;56.96;32.06;75.38;;
66399;Laerm;54877;51.504;3.894;2022-09-01T09:36:14;39.60;31.85;59.27;;
66399;Laerm;54877;51.504;3.894;2022-09-01T09:38:40;53.36;34.61;73.48;;
66399;Laerm;54877;51.504;3.894;2022-09-01T09:41:21;48.69;32.38;67.11;;
66399;Laerm;54877;51.504;3.894;2022-09-01T09:43:48;56.41;33.09;75.39;;
66399;Laerm;54877;51.504;3.894;2022-09-01T09:46:26;51.58;33.82;70.32;;
66399;Laerm;54877;51.504;3.894;2022-09-01T09:49:06;48.23;33.78;72.63;;
66399;Laerm;54877;51.504;3.894;2022-09-01T09:51:31;46.18;33.02;66.66;;
66399;Laerm;54877;51.504;3.894;2022-09-01T09:54:12;55.70;34.11;70.59;;
66399;Laerm;54877;51.504;3.894;2022-09-01T09:56:38;53.04;33.90;69.99;;
66399;Laerm;54877;51.504;3.894;2022-09-01T09:59:15;41.07;32.69;60.07;;
66399;Laerm;54877;51.504;3.894;2022-09-01T10:01:41;48.48;33.35;70.45;;
66399;Laerm;54877;51.504;3.894;2022-09-01T10:04:07;55.51;34.57;70.86;;
66399;Laerm;54877;51.504;3.894;2022-09-01T10:06:33;40.10;31.42;58.30;;
66399;Laerm;54877;51.504;3.894;2022-09-01T10:09:03;47.73;32.99;63.91;;
66399;Laerm;54877;51.504;3.894;2022-09-01T10:11:30;44.08;34.35;66.39;;
66399;Laerm;54877;51.504;3.894;2022-09-01T10:13:57;39.58;32.26;61.27;;
66399;Laerm;54877;51.504;3.894;2022-09-01T10:16:32;43.03;31.52;61.63;;
66399;Laerm;54877;51.504;3.894;2022-09-01T10:19:00;46.85;32.17;67.96;;
66399;Laerm;54877;51.504;3.894;2022-09-01T10:21:27;43.04;31.42;69.37;;
66399;Laerm;54877;51.504;3.894;2022-09-01T10:23:54;43.53;34.52;66.43;;
66399;Laerm;54877;51.504;3.894;2022-09-01T10:26:23;43.71;33.43;67.09;;
66399;Laerm;54877;51.504;3.894;2022-09-01T10:31:34;56.82;32.50;80.80;;
66399;Laerm;54877;51.504;3.894;2022-09-01T10:34:03;52.59;31.02;71.28;;
66399;Laerm;54877;51.504;3.894;2022-09-01T10:36:29;43.75;31.82;64.47;;
66399;Laerm;54877;51.504;3.894;2022-09-01T10:38:54;51.49;33.69;70.00;;
66399;Laerm;54877;51.504;3.894;2022-09-01T10:44:12;41.58;31.02;60.04;;
66399;Laerm;54877;51.504;3.894;2022-09-01T10:46:43;50.19;31.14;69.33;;
66399;Laerm;54877;51.504;3.894;2022-09-01T10:49:17;56.18;31.47;77.15;;
66399;Laerm;54877;51.504;3.894;2022-09-01T10:51:43;56.72;30.80;72.41;;
66399;Laerm;54877;51.504;3.894;2022-09-01T10:54:14;40.98;31.25;63.23;;
66399;Laerm;54877;51.504;3.894;2022-09-01T10:56:54;53.24;31.60;80.12;;
66399;Laerm;54877;51.504;3.894;2022-09-01T11:04:14;44.41;32.32;62.36;;
66399;Laerm;54877;51.504;3.894;2022-09-01T11:09:05;55.97;31.95;75.03;;
66399;Laerm;54877;51.504;3.894;2022-09-01T11:11:53;44.99;33.28;62.88;;
66399;Laerm;54877;51.504;3.894;2022-09-01T11:14:21;50.19;33.82;65.64;;
66399;Laerm;54877;51.504;3.894;2022-09-01T11:19:33;45.99;31.22;61.68;;
66399;Laerm;54877;51.504;3.894;2022-09-01T11:27:06;52.99;34.99;66.79;;
66399;Laerm;54877;51.504;3.894;2022-09-01T11:32:15;44.33;33.67;68.59;;
66399;Laerm;54877;51.504;3.894;2022-09-01T11:34:41;43.76;34.44;63.16;;
66399;Laerm;54877;51.504;3.894;2022-09-01T11:37:11;52.29;35.99;69.32;;
66399;Laerm;54877;51.504;3.894;2022-09-01T11:39:40;44.41;33.90;59.56;;
66399;Laerm;54877;51.504;3.894;2022-09-01T11:44:43;61.79;36.03;77.08;;
66399;Laerm;54877;51.504;3.894;2022-09-01T11:47:12;56.22;34.56;73.72;;
66399;Laerm;54877;51.504;3.894;2022-09-01T11:49:48;43.44;34.70;64.03;;
66399;Laerm;54877;51.504;3.894;2022-09-01T11:52:15;45.52;33.72;61.30;;
66399;Laerm;54877;51.504;3.894;2022-09-01T11:54:42;58.86;34.07;77.05;;
66399;Laerm;54877;51.504;3.894;2022-09-01T11:59:41;48.29;34.00;66.47;;
66399;Laerm;54877;51.504;3.894;2022-09-01T12:02:06;51.21;34.43;68.52;;
66399;Laerm;54877;51.504;3.894;2022-09-01T12:04:33;51.60;33.98;69.29;;
66399;Laerm;54877;51.504;3.894;2022-09-01T12:07:07;52.75;32.50;71.58;;
66399;Laerm;54877;51.504;3.894;2022-09-01T12:09:41;47.65;36.10;63.86;;
66399;Laerm;54877;51.504;3.894;2022-09-01T12:12:23;46.59;36.20;62.53;;
66399;Laerm;54877;51.504;3.894;2022-09-01T12:15:08;47.11;36.24;71.15;;
66399;Laerm;54877;51.504;3.894;2022-09-01T12:17:34;43.80;37.35;57.46;;
66399;Laerm;54877;51.504;3.894;2022-09-01T12:22:44;53.72;34.51;70.86;;
66399;Laerm;54877;51.504;3.894;2022-09-01T12:25:16;53.03;33.52;78.06;;
66399;Laerm;54877;51.504;3.894;2022-09-01T12:27:42;50.86;32.03;72.84;;
66399;Laerm;54877;51.504;3.894;2022-09-01T12:30:08;52.45;33.87;70.13;;
66399;Laerm;54877;51.504;3.894;2022-09-01T12:32:33;42.43;34.35;58.40;;
66399;Laerm;54877;51.504;3.894;2022-09-01T12:35:00;41.06;35.40;54.84;;
66399;Laerm;54877;51.504;3.894;2022-09-01T12:37:26;52.57;33.86;75.60;;
66399;Laerm;54877;51.504;3.894;2022-09-01T12:39:57;37.93;31.67;53.79;;
66399;Laerm;54877;51.504;3.894;2022-09-01T12:42:27;52.82;33.39;72.31;;
66399;Laerm;54877;51.504;3.894;2022-09-01T12:44:58;40.90;33.30;62.60;;
66399;Laerm;54877;51.504;3.894;2022-09-01T12:49:58;42.41;34.26;58.95;;
66399;Laerm;54877;51.504;3.894;2022-09-01T12:52:24;42.14;34.36;60.24;;
66399;Laerm;54877;51.504;3.894;2022-09-01T13:07:45;39.45;32.20;59.03;;
66399;Laerm;54877;51.504;3.894;2022-09-01T13:10:11;41.79;32.02;57.52;;
66399;Laerm;54877;51.504;3.894;2022-09-01T13:12:42;41.96;32.73;67.22;;
66399;Laerm;54877;51.504;3.894;2022-09-01T13:15:08;46.24;33.21;62.50;;
66399;Laerm;54877;51.504;3.894;2022-09-01T13:17:34;51.46;34.43;70.06;;
66399;Laerm;54877;51.504;3.894;2022-09-01T13:19:59;45.38;38.28;63.11;;
66399;Laerm;54877;51.504;3.894;2022-09-01T13:22:24;52.85;36.56;69.67;;
66399;Laerm;54877;51.504;3.894;2022-09-01T13:24:49;52.06;33.51;70.86;;
66399;Laerm;54877;51.504;3.894;2022-09-01T13:27:14;50.87;33.21;68.77;;
66399;Laerm;54877;51.504;3.894;2022-09-01T13:29:40;41.86;32.27;64.40;;
66399;Laerm;54877;51.504;3.894;2022-09-01T13:32:05;56.98;33.21;74.07;;
66399;Laerm;54877;51.504;3.894;2022-09-01T13:34:31;44.13;31.78;67.58;;
66399;Laerm;54877;51.504;3.894;2022-09-01T13:36:56;51.86;31.81;63.45;;
66399;Laerm;54877;51.504;3.894;2022-09-01T13:39:21;41.49;32.52;56.04;;
66399;Laerm;54877;51.504;3.894;2022-09-01T13:41:47;55.51;33.35;72.16;;
66399;Laerm;54877;51.504;3.894;2022-09-01T13:44:12;50.42;34.07;66.73;;
66399;Laerm;54877;51.504;3.894;2022-09-01T13:46:37;49.44;32.35;65.42;;
66399;Laerm;54877;51.504;3.894;2022-09-01T13:49:03;53.22;31.63;73.46;;
66399;Laerm;54877;51.504;3.894;2022-09-01T13:51:28;56.26;32.92;75.03;;
66399;Laerm;54877;51.504;3.894;2022-09-01T13:53:54;40.96;31.05;63.72;;
66399;Laerm;54877;51.504;3.894;2022-09-01T13:56:19;54.33;31.33;70.70;;
66399;Laerm;54877;51.504;3.894;2022-09-01T13:58:44;51.52;31.81;72.53;;
66399;Laerm;54877;51.504;3.894;2022-09-01T14:01:09;52.98;32.64;68.80;;
66399;Laerm;54877;51.504;3.894;2022-09-01T14:03:36;45.72;32.46;71.97;;
66399;Laerm;54877;51.504;3.894;2022-09-01T14:06:01;45.02;31.32;61.78;;
66399;Laerm;54877;51.504;3.894;2022-09-01T14:08:27;58.38;29.44;78.17;;
66399;Laerm;54877;51.504;3.894;2022-09-01T14:10:52;51.35;29.83;64.68;;
66399;Laerm;54877;51.504;3.894;2022-09-01T14:13:21;61.62;33.60;80.19;;
66399;Laerm;54877;51.504;3.894;2022-09-01T14:15:46;51.49;31.45;77.95;;
66399;Laerm;54877;51.504;3.894;2022-09-01T14:18:12;39.26;30.74;58.81;;
66399;Laerm;54877;51.504;3.894;2022-09-01T14:20:38;42.24;31.36;66.64;;
66399;Laerm;54877;51.504;3.894;2022-09-01T14:23:07;53.14;30.10;71.99;;
66399;Laerm;54877;51.504;3.894;2022-09-01T14:25:34;42.57;33.64;63.97;;
66399;Laerm;54877;51.504;3.894;2022-09-01T14:28:00;43.20;32.89;61.56;;
66399;Laerm;54877;51.504;3.894;2022-09-01T14:30:27;39.47;30.83;69.23;;
66399;Laerm;54877;51.504;3.894;2022-09-01T14:32:52;48.93;34.50;71.27;;
66399;Laerm;54877;51.504;3.894;2022-09-01T14:35:19;49.01;32.12;76.15;;
66399;Laerm;54877;51.504;3.894;2022-09-01T14:37:44;49.34;31.93;71.83;;
66399;Laerm;54877;51.504;3.894;2022-09-01T14:40:11;54.47;30.44;73.03;;
66399;Laerm;54877;51.504;3.894;2022-09-01T14:42:39;40.42;31.39;59.22;;
66399;Laerm;54877;51.504;3.894;2022-09-01T14:45:04;43.07;31.13;67.84;;